sensor_id;sensor_type;location;lat;lon;timestamp;P1;durP1;ratioP1;P2;durP2;ratioP2
28455;SDS011;15682;56.742;38.866;2023-03-24T00:00:29;11.7;;;6.3;;
28455;SDS011;15682;56.742;38.866;2023-03-24T00:02:30;13.9;;;7.1;;
28455;SDS011;15682;56.742;38.866;2023-03-24T00:04:30;13.8;;;6.8;;
28455;SDS011;15682;56.742;38.866;2023-03-24T00:06:30;13.3;;;7.1;;
28455;SDS011;15682;56.742;38.866;2023-03-24T00:08:31;13.0;;;7.4;;
28455;SDS011;15682;56.742;38.866;2023-03-24T00:10:30;12.2;;;6.9;;
28455;SDS011;15682;56.742;38.866;2023-03-24T00:12:30;12.4;;;7.1;;
28455;SDS011;15682;56.742;38.866;2023-03-24T00:14:30;13.1;;;7.1;;
28455;SDS011;15682;56.742;38.866;2023-03-24T00:16:30;13.3;;;7.6;;
28455;SDS011;15682;56.742;38.866;2023-03-24T00:18:30;13.2;;;7.6;;
28455;SDS011;15682;56.742;38.866;2023-03-24T00:20:30;13.5;;;7.6;;
28455;SDS011;15682;56.742;38.866;2023-03-24T00:22:30;15.1;;;7.2;;
28455;SDS011;15682;56.742;38.866;2023-03-24T00:24:30;11.8;;;7.1;;
28455;SDS011;15682;56.742;38.866;2023-03-24T00:26:30;12.6;;;7.7;;
28455;SDS011;15682;56.742;38.866;2023-03-24T00:28:31;16.3;;;7.9;;
28455;SDS011;15682;56.742;38.866;2023-03-24T00:30:31;13.7;;;7.2;;
28455;SDS011;15682;56.742;38.866;2023-03-24T00:32:31;12.7;;;7.3;;
28455;SDS011;15682;56.742;38.866;2023-03-24T00:34:31;11.6;;;7.4;;
28455;SDS011;15682;56.742;38.866;2023-03-24T00:36:31;14.8;;;7.6;;
28455;SDS011;15682;56.742;38.866;2023-03-24T00:38:31;15.7;;;7.7;;
28455;SDS011;15682;56.742;38.866;2023-03-24T00:40:31;12.8;;;7.8;;
28455;SDS011;15682;56.742;38.866;2023-03-24T00:42:31;13.8;;;7.9;;
28455;SDS011;15682;56.742;38.866;2023-03-24T00:44:31;15.3;;;8.1;;
28455;SDS011;15682;56.742;38.866;2023-03-24T00:46:31;12.2;;;7.4;;
28455;SDS011;15682;56.742;38.866;2023-03-24T00:48:31;15.0;;;8.1;;
28455;SDS011;15682;56.742;38.866;2023-03-24T00:50:31;13.2;;;8.0;;
28455;SDS011;15682;56.742;38.866;2023-03-24T00:52:32;15.3;;;8.6;;
28455;SDS011;15682;56.742;38.866;2023-03-24T00:54:32;16.2;;;8.8;;
28455;SDS011;15682;56.742;38.866;2023-03-24T00:56:32;16.0;;;8.6;;
28455;SDS011;15682;56.742;38.866;2023-03-24T00:58:32;16.4;;;8.3;;
28455;SDS011;15682;56.742;38.866;2023-03-24T01:00:32;13.2;;;8.7;;
28455;SDS011;15682;56.742;38.866;2023-03-24T01:02:32;11.7;;;8.3;;
28455;SDS011;15682;56.742;38.866;2023-03-24T01:04:32;13.2;;;8.6;;
28455;SDS011;15682;56.742;38.866;2023-03-24T01:06:32;12.8;;;8.3;;
28455;SDS011;15682;56.742;38.866;2023-03-24T01:08:32;13.2;;;8.7;;
28455;SDS011;15682;56.742;38.866;2023-03-24T01:10:33;14.7;;;9.0;;
28455;SDS011;15682;56.742;38.866;2023-03-24T01:12:33;16.6;;;8.6;;
28455;SDS011;15682;56.742;38.866;2023-03-24T01:14:32;14.7;;;8.8;;
28455;SDS011;15682;56.742;38.866;2023-03-24T01:16:32;14.7;;;9.1;;
28455;SDS011;15682;56.742;38.866;2023-03-24T01:18:33;17.3;;;9.5;;
28455;SDS011;15682;56.742;38.866;2023-03-24T01:20:32;15.4;;;9.3;;
28455;SDS011;15682;56.742;38.866;2023-03-24T01:22:33;13.1;;;8.9;;
28455;SDS011;15682;56.742;38.866;2023-03-24T01:24:33;13.9;;;9.2;;
28455;SDS011;15682;56.742;38.866;2023-03-24T01:26:33;15.6;;;9.2;;
28455;SDS011;15682;56.742;38.866;2023-03-24T01:28:33;16.3;;;9.5;;
28455;SDS011;15682;56.742;38.866;2023-03-24T01:30:33;16.5;;;9.4;;
28455;SDS011;15682;56.742;38.866;2023-03-24T01:32:33;18.7;;;9.0;;
28455;SDS011;15682;56.742;38.866;2023-03-24T01:34:33;15.0;;;9.6;;
28455;SDS011;15682;56.742;38.866;2023-03-24T01:36:33;16.7;;;10.1;;
28455;SDS011;15682;56.742;38.866;2023-03-24T01:38:33;16.0;;;10.1;;
28455;SDS011;15682;56.742;38.866;2023-03-24T01:40:34;16.6;;;10.2;;
28455;SDS011;15682;56.742;38.866;2023-03-24T01:42:33;15.6;;;10.3;;
28455;SDS011;15682;56.742;38.866;2023-03-24T01:44:34;19.4;;;10.7;;
28455;SDS011;15682;56.742;38.866;2023-03-24T01:46:33;17.5;;;10.9;;
28455;SDS011;15682;56.742;38.866;2023-03-24T01:48:35;20.8;;;10.8;;
28455;SDS011;15682;56.742;38.866;2023-03-24T01:50:34;17.4;;;10.9;;
28455;SDS011;15682;56.742;38.866;2023-03-24T01:52:34;18.7;;;11.6;;
28455;SDS011;15682;56.742;38.866;2023-03-24T01:54:34;16.8;;;11.9;;
28455;SDS011;15682;56.742;38.866;2023-03-24T01:56:35;17.6;;;12.1;;
28455;SDS011;15682;56.742;38.866;2023-03-24T01:58:34;18.7;;;11.8;;
28455;SDS011;15682;56.742;38.866;2023-03-24T02:00:34;19.4;;;12.0;;
28455;SDS011;15682;56.742;38.866;2023-03-24T02:02:34;22.2;;;12.8;;
28455;SDS011;15682;56.742;38.866;2023-03-24T02:04:35;19.0;;;12.0;;
28455;SDS011;15682;56.742;38.866;2023-03-24T02:06:38;21.0;;;13.0;;
28455;SDS011;15682;56.742;38.866;2023-03-24T02:08:36;19.8;;;12.6;;
28455;SDS011;15682;56.742;38.866;2023-03-24T02:10:34;22.4;;;12.9;;
28455;SDS011;15682;56.742;38.866;2023-03-24T02:12:34;19.8;;;13.4;;
28455;SDS011;15682;56.742;38.866;2023-03-24T02:14:34;22.2;;;13.4;;
28455;SDS011;15682;56.742;38.866;2023-03-24T02:16:39;20.7;;;13.9;;
28455;SDS011;15682;56.742;38.866;2023-03-24T02:18:36;19.2;;;13.0;;
28455;SDS011;15682;56.742;38.866;2023-03-24T02:20:41;20.7;;;13.2;;
28455;SDS011;15682;56.742;38.866;2023-03-24T02:22:41;18.7;;;13.5;;
28455;SDS011;15682;56.742;38.866;2023-03-24T02:24:41;20.0;;;13.8;;
28455;SDS011;15682;56.742;38.866;2023-03-24T02:26:47;21.5;;;13.5;;
28455;SDS011;15682;56.742;38.866;2023-03-24T02:28:38;19.8;;;13.7;;
28455;SDS011;15682;56.742;38.866;2023-03-24T02:30:41;24.9;;;14.8;;
28455;SDS011;15682;56.742;38.866;2023-03-24T02:32:48;22.1;;;14.3;;
28455;SDS011;15682;56.742;38.866;2023-03-24T02:36:47;21.9;;;13.5;;
28455;SDS011;15682;56.742;38.866;2023-03-24T02:38:43;22.4;;;14.1;;
28455;SDS011;15682;56.742;38.866;2023-03-24T02:40:36;22.6;;;14.7;;
28455;SDS011;15682;56.742;38.866;2023-03-24T02:42:39;21.1;;;14.3;;
28455;SDS011;15682;56.742;38.866;2023-03-24T02:44:38;21.9;;;13.9;;
28455;SDS011;15682;56.742;38.866;2023-03-24T02:46:37;23.8;;;15.0;;
28455;SDS011;15682;56.742;38.866;2023-03-24T02:48:36;21.6;;;13.7;;
28455;SDS011;15682;56.742;38.866;2023-03-24T02:50:37;25.9;;;15.8;;
28455;SDS011;15682;56.742;38.866;2023-03-24T02:52:37;23.2;;;15.1;;
28455;SDS011;15682;56.742;38.866;2023-03-24T02:54:37;23.7;;;15.3;;
28455;SDS011;15682;56.742;38.866;2023-03-24T02:56:36;24.1;;;15.6;;
28455;SDS011;15682;56.742;38.866;2023-03-24T02:58:36;22.7;;;15.1;;
28455;SDS011;15682;56.742;38.866;2023-03-24T03:00:37;24.3;;;15.5;;
28455;SDS011;15682;56.742;38.866;2023-03-24T03:02:36;30.1;;;16.7;;
28455;SDS011;15682;56.742;38.866;2023-03-24T03:04:37;24.1;;;15.9;;
28455;SDS011;15682;56.742;38.866;2023-03-24T03:06:36;26.3;;;17.4;;
28455;SDS011;15682;56.742;38.866;2023-03-24T03:08:36;26.2;;;17.3;;
28455;SDS011;15682;56.742;38.866;2023-03-24T03:10:36;26.1;;;16.8;;
28455;SDS011;15682;56.742;38.866;2023-03-24T03:12:36;25.4;;;17.2;;
28455;SDS011;15682;56.742;38.866;2023-03-24T03:14:37;27.3;;;17.7;;
28455;SDS011;15682;56.742;38.866;2023-03-24T03:16:37;28.5;;;16.9;;
28455;SDS011;15682;56.742;38.866;2023-03-24T03:18:37;27.7;;;17.0;;
28455;SDS011;15682;56.742;38.866;2023-03-24T03:20:37;25.7;;;17.0;;
28455;SDS011;15682;56.742;38.866;2023-03-24T03:22:38;25.4;;;17.0;;
28455;SDS011;15682;56.742;38.866;2023-03-24T03:24:38;27.1;;;17.1;;
28455;SDS011;15682;56.742;38.866;2023-03-24T03:26:36;31.3;;;18.3;;
28455;SDS011;15682;56.742;38.866;2023-03-24T03:28:37;29.4;;;19.1;;
28455;SDS011;15682;56.742;38.866;2023-03-24T03:30:38;29.8;;;18.1;;
28455;SDS011;15682;56.742;38.866;2023-03-24T03:32:37;28.5;;;18.3;;
28455;SDS011;15682;56.742;38.866;2023-03-24T03:34:39;30.0;;;19.4;;
28455;SDS011;15682;56.742;38.866;2023-03-24T03:36:38;31.5;;;19.2;;
28455;SDS011;15682;56.742;38.866;2023-03-24T03:38:40;26.7;;;18.0;;
28455;SDS011;15682;56.742;38.866;2023-03-24T03:40:39;32.5;;;20.1;;
28455;SDS011;15682;56.742;38.866;2023-03-24T03:42:37;31.5;;;19.6;;
28455;SDS011;15682;56.742;38.866;2023-03-24T03:44:37;27.9;;;18.0;;
28455;SDS011;15682;56.742;38.866;2023-03-24T03:46:37;30.2;;;18.6;;
28455;SDS011;15682;56.742;38.866;2023-03-24T03:48:37;38.0;;;20.4;;
28455;SDS011;15682;56.742;38.866;2023-03-24T03:50:37;26.8;;;18.9;;
28455;SDS011;15682;56.742;38.866;2023-03-24T03:52:37;27.0;;;18.3;;
28455;SDS011;15682;56.742;38.866;2023-03-24T03:54:37;30.9;;;19.9;;
28455;SDS011;15682;56.742;38.866;2023-03-24T03:56:37;28.0;;;18.5;;
28455;SDS011;15682;56.742;38.866;2023-03-24T03:58:38;32.3;;;19.3;;
28455;SDS011;15682;56.742;38.866;2023-03-24T04:00:38;34.6;;;19.4;;
28455;SDS011;15682;56.742;38.866;2023-03-24T04:02:40;33.0;;;19.2;;
28455;SDS011;15682;56.742;38.866;2023-03-24T04:04:47;27.0;;;18.7;;
28455;SDS011;15682;56.742;38.866;2023-03-24T04:06:38;31.0;;;19.0;;
28455;SDS011;15682;56.742;38.866;2023-03-24T04:08:42;28.4;;;18.9;;
28455;SDS011;15682;56.742;38.866;2023-03-24T04:10:45;27.1;;;18.5;;
28455;SDS011;15682;56.742;38.866;2023-03-24T04:12:42;27.8;;;18.0;;
28455;SDS011;15682;56.742;38.866;2023-03-24T04:16:41;29.3;;;18.8;;
28455;SDS011;15682;56.742;38.866;2023-03-24T04:18:42;29.2;;;18.7;;
28455;SDS011;15682;56.742;38.866;2023-03-24T04:20:41;29.9;;;19.1;;
28455;SDS011;15682;56.742;38.866;2023-03-24T04:22:42;28.5;;;18.3;;
28455;SDS011;15682;56.742;38.866;2023-03-24T04:24:40;31.6;;;19.3;;
28455;SDS011;15682;56.742;38.866;2023-03-24T04:26:40;29.1;;;18.5;;
28455;SDS011;15682;56.742;38.866;2023-03-24T04:28:40;27.7;;;19.1;;
28455;SDS011;15682;56.742;38.866;2023-03-24T04:30:39;27.8;;;19.1;;
28455;SDS011;15682;56.742;38.866;2023-03-24T04:32:39;29.4;;;19.5;;
28455;SDS011;15682;56.742;38.866;2023-03-24T04:34:39;29.9;;;20.0;;
28455;SDS011;15682;56.742;38.866;2023-03-24T04:36:39;30.4;;;20.6;;
28455;SDS011;15682;56.742;38.866;2023-03-24T04:38:39;30.7;;;19.4;;
28455;SDS011;15682;56.742;38.866;2023-03-24T04:40:39;27.7;;;18.9;;
28455;SDS011;15682;56.742;38.866;2023-03-24T04:42:40;33.8;;;21.5;;
28455;SDS011;15682;56.742;38.866;2023-03-24T04:44:40;37.9;;;23.3;;
28455;SDS011;15682;56.742;38.866;2023-03-24T04:46:39;45.4;;;27.3;;
28455;SDS011;15682;56.742;38.866;2023-03-24T04:48:39;53.9;;;30.4;;
28455;SDS011;15682;56.742;38.866;2023-03-24T04:50:40;49.3;;;29.8;;
28455;SDS011;15682;56.742;38.866;2023-03-24T04:52:39;44.2;;;27.3;;
28455;SDS011;15682;56.742;38.866;2023-03-24T04:54:39;34.6;;;22.4;;
28455;SDS011;15682;56.742;38.866;2023-03-24T04:56:40;36.2;;;22.6;;
28455;SDS011;15682;56.742;38.866;2023-03-24T04:58:39;33.6;;;22.0;;
28455;SDS011;15682;56.742;38.866;2023-03-24T05:00:39;33.5;;;21.2;;
28455;SDS011;15682;56.742;38.866;2023-03-24T05:02:39;35.1;;;21.9;;
28455;SDS011;15682;56.742;38.866;2023-03-24T05:04:40;34.8;;;21.9;;
28455;SDS011;15682;56.742;38.866;2023-03-24T05:06:39;31.9;;;21.6;;
28455;SDS011;15682;56.742;38.866;2023-03-24T05:08:39;35.1;;;21.8;;
28455;SDS011;15682;56.742;38.866;2023-03-24T05:10:39;32.9;;;21.8;;
28455;SDS011;15682;56.742;38.866;2023-03-24T05:12:39;33.9;;;21.4;;
28455;SDS011;15682;56.742;38.866;2023-03-24T05:14:40;39.4;;;22.3;;
28455;SDS011;15682;56.742;38.866;2023-03-24T05:16:40;34.6;;;22.5;;
28455;SDS011;15682;56.742;38.866;2023-03-24T05:18:40;33.0;;;21.9;;
28455;SDS011;15682;56.742;38.866;2023-03-24T05:20:40;36.7;;;22.3;;
28455;SDS011;15682;56.742;38.866;2023-03-24T05:22:40;32.2;;;21.1;;
28455;SDS011;15682;56.742;38.866;2023-03-24T05:24:40;34.7;;;22.3;;
28455;SDS011;15682;56.742;38.866;2023-03-24T05:26:40;36.6;;;22.6;;
28455;SDS011;15682;56.742;38.866;2023-03-24T05:28:40;39.4;;;22.8;;
28455;SDS011;15682;56.742;38.866;2023-03-24T05:30:40;31.8;;;21.7;;
28455;SDS011;15682;56.742;38.866;2023-03-24T05:32:40;36.2;;;21.8;;
28455;SDS011;15682;56.742;38.866;2023-03-24T05:34:40;36.7;;;22.8;;
28455;SDS011;15682;56.742;38.866;2023-03-24T05:36:40;36.4;;;22.3;;
28455;SDS011;15682;56.742;38.866;2023-03-24T05:38:40;34.5;;;22.2;;
28455;SDS011;15682;56.742;38.866;2023-03-24T05:40:40;32.9;;;21.6;;
28455;SDS011;15682;56.742;38.866;2023-03-24T05:42:40;34.8;;;22.3;;
28455;SDS011;15682;56.742;38.866;2023-03-24T05:44:40;34.5;;;22.4;;
28455;SDS011;15682;56.742;38.866;2023-03-24T05:46:41;35.1;;;22.9;;
28455;SDS011;15682;56.742;38.866;2023-03-24T05:48:41;34.9;;;22.8;;
28455;SDS011;15682;56.742;38.866;2023-03-24T05:50:42;36.5;;;23.0;;
28455;SDS011;15682;56.742;38.866;2023-03-24T05:52:41;40.8;;;24.6;;
28455;SDS011;15682;56.742;38.866;2023-03-24T05:54:41;34.3;;;22.9;;
28455;SDS011;15682;56.742;38.866;2023-03-24T05:56:41;34.6;;;23.6;;
28455;SDS011;15682;56.742;38.866;2023-03-24T05:58:41;37.7;;;23.1;;
28455;SDS011;15682;56.742;38.866;2023-03-24T06:00:41;40.3;;;24.9;;
28455;SDS011;15682;56.742;38.866;2023-03-24T06:02:41;37.7;;;22.6;;
28455;SDS011;15682;56.742;38.866;2023-03-24T06:04:41;37.9;;;23.4;;
28455;SDS011;15682;56.742;38.866;2023-03-24T06:06:41;36.8;;;22.5;;
28455;SDS011;15682;56.742;38.866;2023-03-24T06:08:41;40.5;;;25.3;;
28455;SDS011;15682;56.742;38.866;2023-03-24T06:10:41;35.7;;;24.0;;
28455;SDS011;15682;56.742;38.866;2023-03-24T06:12:41;38.6;;;23.8;;
28455;SDS011;15682;56.742;38.866;2023-03-24T06:14:41;36.3;;;23.5;;
28455;SDS011;15682;56.742;38.866;2023-03-24T06:16:42;34.4;;;23.1;;
28455;SDS011;15682;56.742;38.866;2023-03-24T06:18:41;36.0;;;24.4;;
28455;SDS011;15682;56.742;38.866;2023-03-24T06:20:42;39.1;;;25.0;;
28455;SDS011;15682;56.742;38.866;2023-03-24T06:22:42;37.4;;;23.8;;
28455;SDS011;15682;56.742;38.866;2023-03-24T06:24:42;36.5;;;24.1;;
28455;SDS011;15682;56.742;38.866;2023-03-24T06:26:42;44.6;;;25.0;;
28455;SDS011;15682;56.742;38.866;2023-03-24T06:28:42;36.4;;;24.2;;
28455;SDS011;15682;56.742;38.866;2023-03-24T06:30:42;40.8;;;26.3;;
28455;SDS011;15682;56.742;38.866;2023-03-24T06:32:42;89.0;;;31.7;;
28455;SDS011;15682;56.742;38.866;2023-03-24T06:34:42;48.0;;;27.6;;
28455;SDS011;15682;56.742;38.866;2023-03-24T06:36:42;36.3;;;24.6;;
28455;SDS011;15682;56.742;38.866;2023-03-24T06:38:43;39.5;;;25.0;;
28455;SDS011;15682;56.742;38.866;2023-03-24T06:40:42;40.5;;;26.3;;
28455;SDS011;15682;56.742;38.866;2023-03-24T06:42:42;39.7;;;25.6;;
28455;SDS011;15682;56.742;38.866;2023-03-24T06:44:42;45.7;;;27.1;;
28455;SDS011;15682;56.742;38.866;2023-03-24T06:46:43;59.6;;;28.1;;
28455;SDS011;15682;56.742;38.866;2023-03-24T06:48:42;34.8;;;23.7;;
28455;SDS011;15682;56.742;38.866;2023-03-24T06:50:43;36.5;;;24.0;;
28455;SDS011;15682;56.742;38.866;2023-03-24T06:52:43;37.0;;;25.1;;
28455;SDS011;15682;56.742;38.866;2023-03-24T06:54:43;35.8;;;24.4;;
28455;SDS011;15682;56.742;38.866;2023-03-24T06:56:43;38.2;;;25.5;;
28455;SDS011;15682;56.742;38.866;2023-03-24T06:58:43;35.3;;;24.4;;
28455;SDS011;15682;56.742;38.866;2023-03-24T07:00:43;36.7;;;24.1;;
28455;SDS011;15682;56.742;38.866;2023-03-24T07:02:43;37.4;;;25.2;;
28455;SDS011;15682;56.742;38.866;2023-03-24T07:04:43;39.8;;;25.7;;
28455;SDS011;15682;56.742;38.866;2023-03-24T07:06:43;35.7;;;25.1;;
28455;SDS011;15682;56.742;38.866;2023-03-24T07:08:43;38.1;;;25.2;;
28455;SDS011;15682;56.742;38.866;2023-03-24T07:10:43;35.6;;;25.1;;
28455;SDS011;15682;56.742;38.866;2023-03-24T07:12:43;35.0;;;25.2;;
28455;SDS011;15682;56.742;38.866;2023-03-24T07:14:44;37.0;;;24.9;;
28455;SDS011;15682;56.742;38.866;2023-03-24T07:16:44;39.4;;;26.0;;
28455;SDS011;15682;56.742;38.866;2023-03-24T07:18:44;35.2;;;25.6;;
28455;SDS011;15682;56.742;38.866;2023-03-24T07:20:44;39.9;;;25.1;;
28455;SDS011;15682;56.742;38.866;2023-03-24T07:22:44;42.3;;;25.5;;
28455;SDS011;15682;56.742;38.866;2023-03-24T07:24:44;38.5;;;26.5;;
28455;SDS011;15682;56.742;38.866;2023-03-24T07:26:44;44.0;;;26.8;;
28455;SDS011;15682;56.742;38.866;2023-03-24T07:28:44;40.4;;;26.2;;
28455;SDS011;15682;56.742;38.866;2023-03-24T07:30:44;40.9;;;26.7;;
28455;SDS011;15682;56.742;38.866;2023-03-24T07:32:44;36.2;;;25.7;;
28455;SDS011;15682;56.742;38.866;2023-03-24T07:34:44;39.7;;;26.8;;
28455;SDS011;15682;56.742;38.866;2023-03-24T07:36:45;40.1;;;27.3;;
28455;SDS011;15682;56.742;38.866;2023-03-24T07:38:45;35.3;;;25.7;;
28455;SDS011;15682;56.742;38.866;2023-03-24T07:40:45;36.0;;;25.7;;
28455;SDS011;15682;56.742;38.866;2023-03-24T07:42:45;39.9;;;26.6;;
28455;SDS011;15682;56.742;38.866;2023-03-24T07:44:45;36.3;;;25.2;;
28455;SDS011;15682;56.742;38.866;2023-03-24T07:46:45;37.0;;;24.9;;
28455;SDS011;15682;56.742;38.866;2023-03-24T07:48:45;36.3;;;25.6;;
28455;SDS011;15682;56.742;38.866;2023-03-24T07:50:45;38.2;;;24.8;;
28455;SDS011;15682;56.742;38.866;2023-03-24T07:52:46;34.0;;;25.0;;
28455;SDS011;15682;56.742;38.866;2023-03-24T07:54:45;35.5;;;25.2;;
28455;SDS011;15682;56.742;38.866;2023-03-24T07:56:46;38.9;;;24.5;;
28455;SDS011;15682;56.742;38.866;2023-03-24T07:58:46;34.5;;;24.4;;
28455;SDS011;15682;56.742;38.866;2023-03-24T08:00:46;35.1;;;24.7;;
28455;SDS011;15682;56.742;38.866;2023-03-24T08:02:46;31.6;;;23.1;;
28455;SDS011;15682;56.742;38.866;2023-03-24T08:04:49;33.6;;;23.8;;
28455;SDS011;15682;56.742;38.866;2023-03-24T08:06:46;34.6;;;23.7;;
28455;SDS011;15682;56.742;38.866;2023-03-24T08:08:46;32.1;;;23.9;;
28455;SDS011;15682;56.742;38.866;2023-03-24T08:10:46;34.0;;;24.4;;
28455;SDS011;15682;56.742;38.866;2023-03-24T08:12:46;35.2;;;23.9;;
28455;SDS011;15682;56.742;38.866;2023-03-24T08:14:46;34.5;;;24.2;;
28455;SDS011;15682;56.742;38.866;2023-03-24T08:16:46;37.4;;;24.3;;
28455;SDS011;15682;56.742;38.866;2023-03-24T08:18:46;35.0;;;23.7;;
28455;SDS011;15682;56.742;38.866;2023-03-24T08:20:47;33.9;;;22.4;;
28455;SDS011;15682;56.742;38.866;2023-03-24T08:22:47;32.4;;;21.5;;
28455;SDS011;15682;56.742;38.866;2023-03-24T08:24:47;31.7;;;21.7;;
28455;SDS011;15682;56.742;38.866;2023-03-24T08:26:47;30.8;;;20.9;;
28455;SDS011;15682;56.742;38.866;2023-03-24T08:28:47;28.1;;;20.4;;
28455;SDS011;15682;56.742;38.866;2023-03-24T08:30:47;30.8;;;21.6;;
28455;SDS011;15682;56.742;38.866;2023-03-24T08:32:48;30.9;;;21.7;;
28455;SDS011;15682;56.742;38.866;2023-03-24T08:34:47;27.2;;;20.6;;
28455;SDS011;15682;56.742;38.866;2023-03-24T08:36:47;29.0;;;19.2;;
28455;SDS011;15682;56.742;38.866;2023-03-24T08:38:47;28.8;;;19.1;;
28455;SDS011;15682;56.742;38.866;2023-03-24T08:40:47;24.8;;;18.2;;
28455;SDS011;15682;56.742;38.866;2023-03-24T08:42:48;24.6;;;17.2;;
28455;SDS011;15682;56.742;38.866;2023-03-24T08:44:47;27.2;;;18.0;;
28455;SDS011;15682;56.742;38.866;2023-03-24T08:46:48;25.6;;;17.2;;
28455;SDS011;15682;56.742;38.866;2023-03-24T08:48:48;23.2;;;17.4;;
28455;SDS011;15682;56.742;38.866;2023-03-24T08:50:48;24.1;;;17.4;;
28455;SDS011;15682;56.742;38.866;2023-03-24T08:52:48;24.8;;;16.7;;
28455;SDS011;15682;56.742;38.866;2023-03-24T08:54:48;21.9;;;16.6;;
28455;SDS011;15682;56.742;38.866;2023-03-24T08:56:48;23.0;;;16.4;;
28455;SDS011;15682;56.742;38.866;2023-03-24T08:58:48;21.2;;;15.8;;
28455;SDS011;15682;56.742;38.866;2023-03-24T09:00:48;21.1;;;15.6;;
28455;SDS011;15682;56.742;38.866;2023-03-24T09:02:49;22.2;;;15.7;;
28455;SDS011;15682;56.742;38.866;2023-03-24T09:04:48;23.4;;;15.5;;
28455;SDS011;15682;56.742;38.866;2023-03-24T09:06:48;52.2;;;18.3;;
28455;SDS011;15682;56.742;38.866;2023-03-24T09:08:48;20.6;;;14.6;;
28455;SDS011;15682;56.742;38.866;2023-03-24T09:10:49;18.1;;;13.5;;
28455;SDS011;15682;56.742;38.866;2023-03-24T09:12:49;18.9;;;13.3;;
28455;SDS011;15682;56.742;38.866;2023-03-24T09:14:49;15.9;;;12.4;;
28455;SDS011;15682;56.742;38.866;2023-03-24T09:16:49;20.2;;;12.1;;
28455;SDS011;15682;56.742;38.866;2023-03-24T09:18:49;14.7;;;11.8;;
28455;SDS011;15682;56.742;38.866;2023-03-24T09:20:49;15.0;;;11.1;;
28455;SDS011;15682;56.742;38.866;2023-03-24T09:22:49;15.3;;;10.3;;
28455;SDS011;15682;56.742;38.866;2023-03-24T09:24:49;14.8;;;11.1;;
28455;SDS011;15682;56.742;38.866;2023-03-24T09:26:49;12.9;;;10.2;;
28455;SDS011;15682;56.742;38.866;2023-03-24T09:28:49;14.3;;;10.6;;
28455;SDS011;15682;56.742;38.866;2023-03-24T09:30:50;12.8;;;10.5;;
28455;SDS011;15682;56.742;38.866;2023-03-24T09:32:50;12.4;;;10.0;;
28455;SDS011;15682;56.742;38.866;2023-03-24T09:34:50;14.4;;;10.2;;
28455;SDS011;15682;56.742;38.866;2023-03-24T09:36:50;13.1;;;9.8;;
28455;SDS011;15682;56.742;38.866;2023-03-24T09:38:50;11.0;;;8.7;;
28455;SDS011;15682;56.742;38.866;2023-03-24T09:40:52;10.0;;;8.6;;
28455;SDS011;15682;56.742;38.866;2023-03-24T09:42:51;10.1;;;8.5;;
28455;SDS011;15682;56.742;38.866;2023-03-24T09:44:51;10.8;;;8.7;;
28455;SDS011;15682;56.742;38.866;2023-03-24T09:46:51;10.5;;;8.1;;
28455;SDS011;15682;56.742;38.866;2023-03-24T09:48:51;9.6;;;7.9;;
28455;SDS011;15682;56.742;38.866;2023-03-24T09:50:52;10.9;;;8.2;;
28455;SDS011;15682;56.742;38.866;2023-03-24T09:52:51;11.7;;;8.1;;
28455;SDS011;15682;56.742;38.866;2023-03-24T09:54:52;11.1;;;7.6;;
28455;SDS011;15682;56.742;38.866;2023-03-24T09:56:51;11.9;;;7.6;;
28455;SDS011;15682;56.742;38.866;2023-03-24T09:58:52;9.2;;;7.3;;
28455;SDS011;15682;56.742;38.866;2023-03-24T10:00:51;9.0;;;7.2;;
28455;SDS011;15682;56.742;38.866;2023-03-24T10:02:51;8.9;;;6.8;;
28455;SDS011;15682;56.742;38.866;2023-03-24T10:04:51;9.9;;;6.8;;
28455;SDS011;15682;56.742;38.866;2023-03-24T10:06:53;11.6;;;7.8;;
28455;SDS011;15682;56.742;38.866;2023-03-24T10:08:54;10.5;;;8.5;;
28455;SDS011;15682;56.742;38.866;2023-03-24T10:10:53;11.5;;;9.1;;
28455;SDS011;15682;56.742;38.866;2023-03-24T10:12:51;8.3;;;7.0;;
28455;SDS011;15682;56.742;38.866;2023-03-24T10:14:55;9.8;;;6.9;;
28455;SDS011;15682;56.742;38.866;2023-03-24T10:16:53;15.6;;;8.3;;
28455;SDS011;15682;56.742;38.866;2023-03-24T10:18:54;11.6;;;7.2;;
28455;SDS011;15682;56.742;38.866;2023-03-24T10:20:53;9.2;;;7.2;;
28455;SDS011;15682;56.742;38.866;2023-03-24T10:22:54;10.0;;;7.2;;
28455;SDS011;15682;56.742;38.866;2023-03-24T10:24:53;11.6;;;7.7;;
28455;SDS011;15682;56.742;38.866;2023-03-24T10:26:53;11.6;;;7.7;;
28455;SDS011;15682;56.742;38.866;2023-03-24T10:28:56;12.2;;;7.8;;
28455;SDS011;15682;56.742;38.866;2023-03-24T10:30:53;10.6;;;8.0;;
28455;SDS011;15682;56.742;38.866;2023-03-24T10:32:52;11.0;;;7.8;;
28455;SDS011;15682;56.742;38.866;2023-03-24T10:34:53;10.7;;;8.3;;
28455;SDS011;15682;56.742;38.866;2023-03-24T10:36:52;14.6;;;8.9;;
28455;SDS011;15682;56.742;38.866;2023-03-24T10:38:53;9.8;;;8.0;;
28455;SDS011;15682;56.742;38.866;2023-03-24T10:40:53;11.9;;;8.9;;
28455;SDS011;15682;56.742;38.866;2023-03-24T10:42:53;15.7;;;8.8;;
28455;SDS011;15682;56.742;38.866;2023-03-24T10:44:53;11.7;;;8.9;;
28455;SDS011;15682;56.742;38.866;2023-03-24T10:46:54;14.0;;;9.2;;
28455;SDS011;15682;56.742;38.866;2023-03-24T10:48:53;13.9;;;9.0;;
28455;SDS011;15682;56.742;38.866;2023-03-24T10:50:53;12.5;;;9.2;;
28455;SDS011;15682;56.742;38.866;2023-03-24T10:52:53;13.3;;;9.0;;
28455;SDS011;15682;56.742;38.866;2023-03-24T10:54:54;12.5;;;9.1;;
28455;SDS011;15682;56.742;38.866;2023-03-24T10:57:00;15.3;;;9.5;;
28455;SDS011;15682;56.742;38.866;2023-03-24T10:58:53;14.0;;;10.2;;
28455;SDS011;15682;56.742;38.866;2023-03-24T11:00:53;13.9;;;9.9;;
28455;SDS011;15682;56.742;38.866;2023-03-24T11:02:55;13.9;;;9.7;;
28455;SDS011;15682;56.742;38.866;2023-03-24T11:04:54;13.5;;;9.5;;
28455;SDS011;15682;56.742;38.866;2023-03-24T11:06:57;16.1;;;10.2;;
28455;SDS011;15682;56.742;38.866;2023-03-24T11:10:54;15.3;;;9.7;;
28455;SDS011;15682;56.742;38.866;2023-03-24T11:13:01;15.3;;;10.6;;
28455;SDS011;15682;56.742;38.866;2023-03-24T11:15:00;17.1;;;10.5;;
28455;SDS011;15682;56.742;38.866;2023-03-24T11:17:00;17.9;;;10.4;;
28455;SDS011;15682;56.742;38.866;2023-03-24T11:18:55;13.6;;;9.5;;
28455;SDS011;15682;56.742;38.866;2023-03-24T11:20:55;13.8;;;10.0;;
28455;SDS011;15682;56.742;38.866;2023-03-24T11:22:55;14.0;;;10.0;;
28455;SDS011;15682;56.742;38.866;2023-03-24T11:24:54;15.1;;;9.9;;
28455;SDS011;15682;56.742;38.866;2023-03-24T11:26:55;18.5;;;10.3;;
28455;SDS011;15682;56.742;38.866;2023-03-24T11:28:55;14.1;;;10.0;;
28455;SDS011;15682;56.742;38.866;2023-03-24T11:30:54;15.6;;;10.4;;
28455;SDS011;15682;56.742;38.866;2023-03-24T11:32:54;13.9;;;10.0;;
28455;SDS011;15682;56.742;38.866;2023-03-24T11:34:58;14.5;;;10.7;;
28455;SDS011;15682;56.742;38.866;2023-03-24T11:36:55;15.7;;;10.8;;
28455;SDS011;15682;56.742;38.866;2023-03-24T11:38:57;14.0;;;10.2;;
28455;SDS011;15682;56.742;38.866;2023-03-24T11:40:55;14.4;;;10.7;;
28455;SDS011;15682;56.742;38.866;2023-03-24T11:42:56;13.9;;;10.4;;
28455;SDS011;15682;56.742;38.866;2023-03-24T11:44:55;15.1;;;10.6;;
28455;SDS011;15682;56.742;38.866;2023-03-24T11:46:56;14.6;;;10.4;;
28455;SDS011;15682;56.742;38.866;2023-03-24T11:48:56;20.2;;;10.7;;
28455;SDS011;15682;56.742;38.866;2023-03-24T11:50:55;14.9;;;10.5;;
28455;SDS011;15682;56.742;38.866;2023-03-24T11:52:57;14.4;;;10.0;;
28455;SDS011;15682;56.742;38.866;2023-03-24T11:54:55;13.4;;;9.8;;
28455;SDS011;15682;56.742;38.866;2023-03-24T11:56:56;13.0;;;9.3;;
28455;SDS011;15682;56.742;38.866;2023-03-24T11:58:56;12.3;;;8.9;;
28455;SDS011;15682;56.742;38.866;2023-03-24T12:00:56;11.2;;;8.6;;